sensor_id;sensor_type;location;lat;lon;timestamp;P1;durP1;ratioP1;P2;durP2;ratioP2
61085;SDS011;46967;48.876;2.136;2022-12-11T00:01:53;11.23;;;5.85;;
61085;SDS011;46967;48.876;2.136;2022-12-11T00:04:19;10.30;;;6.00;;
61085;SDS011;46967;48.876;2.136;2022-12-11T00:06:44;10.75;;;5.65;;
61085;SDS011;46967;48.876;2.136;2022-12-11T00:09:10;13.70;;;6.70;;
61085;SDS011;46967;48.876;2.136;2022-12-11T00:11:35;10.43;;;5.97;;
61085;SDS011;46967;48.876;2.136;2022-12-11T00:14:01;12.77;;;6.70;;
61085;SDS011;46967;48.876;2.136;2022-12-11T00:16:27;12.38;;;6.63;;
61085;SDS011;46967;48.876;2.136;2022-12-11T00:18:52;12.57;;;6.80;;
61085;SDS011;46967;48.876;2.136;2022-12-11T00:21:18;12.77;;;5.90;;
61085;SDS011;46967;48.876;2.136;2022-12-11T00:23:44;11.02;;;6.15;;
61085;SDS011;46967;48.876;2.136;2022-12-11T00:26:11;13.00;;;6.15;;
61085;SDS011;46967;48.876;2.136;2022-12-11T00:31:05;11.25;;;5.95;;
61085;SDS011;46967;48.876;2.136;2022-12-11T00:33:32;10.52;;;6.35;;
61085;SDS011;46967;48.876;2.136;2022-12-11T00:35:58;13.82;;;7.60;;
61085;SDS011;46967;48.876;2.136;2022-12-11T00:38:23;10.90;;;7.30;;
61085;SDS011;46967;48.876;2.136;2022-12-11T00:40:49;11.93;;;6.63;;
61085;SDS011;46967;48.876;2.136;2022-12-11T00:43:14;12.65;;;6.65;;
61085;SDS011;46967;48.876;2.136;2022-12-11T00:45:40;12.07;;;6.32;;
61085;SDS011;46967;48.876;2.136;2022-12-11T00:48:07;10.07;;;6.05;;
61085;SDS011;46967;48.876;2.136;2022-12-11T00:50:34;11.25;;;6.60;;
61085;SDS011;46967;48.876;2.136;2022-12-11T00:53:00;14.45;;;7.05;;
61085;SDS011;46967;48.876;2.136;2022-12-11T00:55:26;10.45;;;6.13;;
61085;SDS011;46967;48.876;2.136;2022-12-11T00:57:54;10.65;;;5.30;;
61085;SDS011;46967;48.876;2.136;2022-12-11T01:00:22;11.10;;;6.20;;
61085;SDS011;46967;48.876;2.136;2022-12-11T01:02:47;9.57;;;5.28;;
61085;SDS011;46967;48.876;2.136;2022-12-11T01:05:13;11.60;;;5.70;;
61085;SDS011;46967;48.876;2.136;2022-12-11T01:07:39;12.65;;;6.22;;
61085;SDS011;46967;48.876;2.136;2022-12-11T01:10:04;9.23;;;4.88;;
61085;SDS011;46967;48.876;2.136;2022-12-11T01:12:49;11.82;;;5.43;;
61085;SDS011;46967;48.876;2.136;2022-12-11T01:15:15;8.30;;;5.10;;
61085;SDS011;46967;48.876;2.136;2022-12-11T01:17:41;11.90;;;5.82;;
61085;SDS011;46967;48.876;2.136;2022-12-11T01:20:06;11.65;;;5.53;;
61085;SDS011;46967;48.876;2.136;2022-12-11T01:22:32;10.93;;;6.10;;
61085;SDS011;46967;48.876;2.136;2022-12-11T01:24:57;13.02;;;7.20;;
61085;SDS011;46967;48.876;2.136;2022-12-11T01:27:23;10.35;;;5.55;;
61085;SDS011;46967;48.876;2.136;2022-12-11T01:29:48;11.50;;;5.40;;
61085;SDS011;46967;48.876;2.136;2022-12-11T01:32:14;10.60;;;5.57;;
61085;SDS011;46967;48.876;2.136;2022-12-11T01:34:40;8.85;;;4.93;;
61085;SDS011;46967;48.876;2.136;2022-12-11T01:37:06;9.45;;;4.85;;
61085;SDS011;46967;48.876;2.136;2022-12-11T01:39:31;8.50;;;4.60;;
61085;SDS011;46967;48.876;2.136;2022-12-11T01:42:00;7.47;;;3.67;;
61085;SDS011;46967;48.876;2.136;2022-12-11T01:46:50;6.88;;;4.53;;
61085;SDS011;46967;48.876;2.136;2022-12-11T01:49:16;9.13;;;4.55;;
61085;SDS011;46967;48.876;2.136;2022-12-11T01:51:46;8.15;;;4.88;;
61085;SDS011;46967;48.876;2.136;2022-12-11T01:54:16;10.50;;;5.13;;
61085;SDS011;46967;48.876;2.136;2022-12-11T01:56:45;9.50;;;5.03;;
61085;SDS011;46967;48.876;2.136;2022-12-11T01:59:12;8.85;;;4.50;;
61085;SDS011;46967;48.876;2.136;2022-12-11T02:04:21;9.93;;;5.80;;
61085;SDS011;46967;48.876;2.136;2022-12-11T02:06:48;8.75;;;5.22;;
61085;SDS011;46967;48.876;2.136;2022-12-11T02:09:16;9.80;;;4.93;;
61085;SDS011;46967;48.876;2.136;2022-12-11T02:11:53;9.40;;;5.50;;
61085;SDS011;46967;48.876;2.136;2022-12-11T02:17:06;7.95;;;4.30;;
61085;SDS011;46967;48.876;2.136;2022-12-11T02:22:04;9.00;;;4.75;;
61085;SDS011;46967;48.876;2.136;2022-12-11T02:24:52;8.05;;;4.50;;
61085;SDS011;46967;48.876;2.136;2022-12-11T02:27:34;9.63;;;4.57;;
61085;SDS011;46967;48.876;2.136;2022-12-11T02:30:07;8.40;;;4.90;;
61085;SDS011;46967;48.876;2.136;2022-12-11T02:35:13;7.35;;;4.13;;
61085;SDS011;46967;48.876;2.136;2022-12-11T02:37:40;6.95;;;4.15;;
61085;SDS011;46967;48.876;2.136;2022-12-11T02:40:09;6.55;;;4.38;;
61085;SDS011;46967;48.876;2.136;2022-12-11T02:42:39;9.70;;;5.72;;
61085;SDS011;46967;48.876;2.136;2022-12-11T02:45:07;7.22;;;4.47;;
61085;SDS011;46967;48.876;2.136;2022-12-11T02:47:34;9.25;;;5.15;;
61085;SDS011;46967;48.876;2.136;2022-12-11T02:50:02;9.20;;;5.55;;
61085;SDS011;46967;48.876;2.136;2022-12-11T02:52:33;8.85;;;5.10;;
61085;SDS011;46967;48.876;2.136;2022-12-11T02:55:01;8.55;;;4.88;;
61085;SDS011;46967;48.876;2.136;2022-12-11T02:57:30;9.40;;;5.50;;
61085;SDS011;46967;48.876;2.136;2022-12-11T03:00:02;7.32;;;4.40;;
61085;SDS011;46967;48.876;2.136;2022-12-11T03:02:29;10.25;;;5.05;;
61085;SDS011;46967;48.876;2.136;2022-12-11T03:04:54;8.80;;;4.10;;
61085;SDS011;46967;48.876;2.136;2022-12-11T03:07:22;7.03;;;4.18;;
61085;SDS011;46967;48.876;2.136;2022-12-11T03:09:50;7.47;;;4.10;;
61085;SDS011;46967;48.876;2.136;2022-12-11T03:12:20;8.85;;;4.55;;
61085;SDS011;46967;48.876;2.136;2022-12-11T03:14:51;10.35;;;5.03;;
61085;SDS011;46967;48.876;2.136;2022-12-11T03:22:57;7.55;;;4.53;;
61085;SDS011;46967;48.876;2.136;2022-12-11T03:25:34;7.20;;;4.53;;
61085;SDS011;46967;48.876;2.136;2022-12-11T03:28:15;8.95;;;4.95;;
61085;SDS011;46967;48.876;2.136;2022-12-11T03:30:45;8.52;;;5.15;;
61085;SDS011;46967;48.876;2.136;2022-12-11T03:33:14;9.25;;;5.00;;
61085;SDS011;46967;48.876;2.136;2022-12-11T03:35:47;9.57;;;5.25;;
61085;SDS011;46967;48.876;2.136;2022-12-11T03:38:37;8.77;;;4.80;;
61085;SDS011;46967;48.876;2.136;2022-12-11T03:41:08;8.57;;;4.70;;
61085;SDS011;46967;48.876;2.136;2022-12-11T03:43:36;10.68;;;5.65;;
61085;SDS011;46967;48.876;2.136;2022-12-11T03:46:03;9.23;;;4.93;;
61085;SDS011;46967;48.876;2.136;2022-12-11T03:48:32;8.60;;;4.90;;
61085;SDS011;46967;48.876;2.136;2022-12-11T03:51:01;9.50;;;4.47;;
61085;SDS011;46967;48.876;2.136;2022-12-11T03:53:29;7.20;;;4.30;;
61085;SDS011;46967;48.876;2.136;2022-12-11T03:55:57;7.15;;;4.10;;
61085;SDS011;46967;48.876;2.136;2022-12-11T03:58:24;7.45;;;4.35;;
61085;SDS011;46967;48.876;2.136;2022-12-11T04:00:50;6.07;;;3.78;;
61085;SDS011;46967;48.876;2.136;2022-12-11T04:03:15;7.35;;;4.00;;
61085;SDS011;46967;48.876;2.136;2022-12-11T04:05:46;8.57;;;3.95;;
61085;SDS011;46967;48.876;2.136;2022-12-11T04:08:13;7.53;;;4.03;;
61085;SDS011;46967;48.876;2.136;2022-12-11T04:10:39;6.43;;;4.07;;
61085;SDS011;46967;48.876;2.136;2022-12-11T04:13:05;6.57;;;4.13;;
61085;SDS011;46967;48.876;2.136;2022-12-11T04:15:31;8.40;;;4.13;;
61085;SDS011;46967;48.876;2.136;2022-12-11T04:17:57;6.38;;;3.90;;
61085;SDS011;46967;48.876;2.136;2022-12-11T04:20:41;5.82;;;3.78;;
61085;SDS011;46967;48.876;2.136;2022-12-11T04:23:27;4.88;;;3.13;;
61085;SDS011;46967;48.876;2.136;2022-12-11T04:26:15;5.13;;;3.40;;
61085;SDS011;46967;48.876;2.136;2022-12-11T04:28:42;6.88;;;3.63;;
61085;SDS011;46967;48.876;2.136;2022-12-11T04:31:12;8.18;;;3.55;;
61085;SDS011;46967;48.876;2.136;2022-12-11T04:33:39;5.32;;;3.58;;
61085;SDS011;46967;48.876;2.136;2022-12-11T04:36:05;8.80;;;3.90;;
61085;SDS011;46967;48.876;2.136;2022-12-11T04:38:31;8.23;;;3.50;;
61085;SDS011;46967;48.876;2.136;2022-12-11T04:41:00;5.45;;;3.70;;
61085;SDS011;46967;48.876;2.136;2022-12-11T04:43:28;7.30;;;2.92;;
61085;SDS011;46967;48.876;2.136;2022-12-11T04:46:04;5.78;;;3.28;;
61085;SDS011;46967;48.876;2.136;2022-12-11T04:48:35;7.53;;;3.60;;
61085;SDS011;46967;48.876;2.136;2022-12-11T04:51:02;5.97;;;3.55;;
61085;SDS011;46967;48.876;2.136;2022-12-11T04:53:28;5.22;;;3.40;;
61085;SDS011;46967;48.876;2.136;2022-12-11T04:55:53;6.65;;;3.63;;
61085;SDS011;46967;48.876;2.136;2022-12-11T04:58:19;5.93;;;3.75;;
61085;SDS011;46967;48.876;2.136;2022-12-11T05:00:45;7.25;;;3.97;;
61085;SDS011;46967;48.876;2.136;2022-12-11T05:03:11;7.38;;;4.38;;
61085;SDS011;46967;48.876;2.136;2022-12-11T05:05:37;6.22;;;3.53;;
61085;SDS011;46967;48.876;2.136;2022-12-11T05:08:02;6.22;;;3.22;;
61085;SDS011;46967;48.876;2.136;2022-12-11T05:10:28;5.82;;;3.70;;
61085;SDS011;46967;48.876;2.136;2022-12-11T05:12:54;7.22;;;3.80;;
61085;SDS011;46967;48.876;2.136;2022-12-11T05:15:19;8.13;;;3.55;;
61085;SDS011;46967;48.876;2.136;2022-12-11T05:17:44;5.05;;;2.70;;
61085;SDS011;46967;48.876;2.136;2022-12-11T05:20:10;4.80;;;3.33;;
61085;SDS011;46967;48.876;2.136;2022-12-11T05:22:36;4.43;;;2.78;;
61085;SDS011;46967;48.876;2.136;2022-12-11T05:25:02;5.00;;;2.90;;
61085;SDS011;46967;48.876;2.136;2022-12-11T05:27:29;5.25;;;3.20;;
61085;SDS011;46967;48.876;2.136;2022-12-11T05:29:54;6.40;;;3.13;;
61085;SDS011;46967;48.876;2.136;2022-12-11T05:32:19;4.35;;;2.75;;
61085;SDS011;46967;48.876;2.136;2022-12-11T05:34:45;5.55;;;3.17;;
61085;SDS011;46967;48.876;2.136;2022-12-11T05:37:10;5.88;;;3.60;;
61085;SDS011;46967;48.876;2.136;2022-12-11T05:39:36;7.22;;;4.00;;
61085;SDS011;46967;48.876;2.136;2022-12-11T05:42:02;6.70;;;3.75;;
61085;SDS011;46967;48.876;2.136;2022-12-11T05:44:28;7.05;;;4.30;;
61085;SDS011;46967;48.876;2.136;2022-12-11T05:46:53;6.13;;;3.88;;
61085;SDS011;46967;48.876;2.136;2022-12-11T05:49:19;7.03;;;4.07;;
61085;SDS011;46967;48.876;2.136;2022-12-11T05:51:45;10.60;;;6.13;;
61085;SDS011;46967;48.876;2.136;2022-12-11T05:54:10;16.23;;;7.50;;
61085;SDS011;46967;48.876;2.136;2022-12-11T05:56:36;12.65;;;6.32;;
61085;SDS011;46967;48.876;2.136;2022-12-11T05:59:02;8.13;;;4.50;;
61085;SDS011;46967;48.876;2.136;2022-12-11T06:01:36;6.28;;;3.85;;
61085;SDS011;46967;48.876;2.136;2022-12-11T06:04:03;8.30;;;4.70;;
61085;SDS011;46967;48.876;2.136;2022-12-11T06:06:31;9.35;;;4.75;;
61085;SDS011;46967;48.876;2.136;2022-12-11T06:08:56;9.05;;;4.93;;
61085;SDS011;46967;48.876;2.136;2022-12-11T06:11:23;8.40;;;4.78;;
61085;SDS011;46967;48.876;2.136;2022-12-11T06:13:49;7.65;;;4.43;;
61085;SDS011;46967;48.876;2.136;2022-12-11T06:16:15;11.18;;;4.57;;
61085;SDS011;46967;48.876;2.136;2022-12-11T06:18:41;7.80;;;4.18;;
61085;SDS011;46967;48.876;2.136;2022-12-11T06:21:15;8.07;;;4.07;;
61085;SDS011;46967;48.876;2.136;2022-12-11T06:23:41;7.68;;;4.30;;
61085;SDS011;46967;48.876;2.136;2022-12-11T06:26:07;9.50;;;4.93;;
61085;SDS011;46967;48.876;2.136;2022-12-11T06:28:34;8.52;;;5.55;;
61085;SDS011;46967;48.876;2.136;2022-12-11T06:30:59;7.63;;;4.38;;
61085;SDS011;46967;48.876;2.136;2022-12-11T06:33:25;8.30;;;4.55;;
61085;SDS011;46967;48.876;2.136;2022-12-11T06:35:51;9.20;;;4.47;;
61085;SDS011;46967;48.876;2.136;2022-12-11T06:38:16;9.35;;;4.88;;
61085;SDS011;46967;48.876;2.136;2022-12-11T06:40:42;9.50;;;5.03;;
61085;SDS011;46967;48.876;2.136;2022-12-11T06:43:08;11.32;;;5.75;;
61085;SDS011;46967;48.876;2.136;2022-12-11T06:45:33;9.80;;;5.15;;
61085;SDS011;46967;48.876;2.136;2022-12-11T06:47:59;7.40;;;4.88;;
61085;SDS011;46967;48.876;2.136;2022-12-11T06:50:24;8.52;;;4.95;;
61085;SDS011;46967;48.876;2.136;2022-12-11T06:52:50;10.40;;;5.25;;
61085;SDS011;46967;48.876;2.136;2022-12-11T06:55:16;8.98;;;5.35;;
61085;SDS011;46967;48.876;2.136;2022-12-11T06:57:41;10.07;;;6.22;;
61085;SDS011;46967;48.876;2.136;2022-12-11T07:00:07;10.02;;;6.00;;
61085;SDS011;46967;48.876;2.136;2022-12-11T07:02:33;12.00;;;6.03;;
61085;SDS011;46967;48.876;2.136;2022-12-11T07:04:58;11.13;;;5.28;;
61085;SDS011;46967;48.876;2.136;2022-12-11T07:07:24;14.10;;;6.47;;
61085;SDS011;46967;48.876;2.136;2022-12-11T07:09:49;12.23;;;6.15;;
61085;SDS011;46967;48.876;2.136;2022-12-11T07:12:15;10.43;;;5.82;;
61085;SDS011;46967;48.876;2.136;2022-12-11T07:14:40;22.98;;;10.27;;
61085;SDS011;46967;48.876;2.136;2022-12-11T07:17:06;19.65;;;9.38;;
61085;SDS011;46967;48.876;2.136;2022-12-11T07:19:31;13.48;;;7.18;;
61085;SDS011;46967;48.876;2.136;2022-12-11T07:21:57;14.32;;;7.07;;
61085;SDS011;46967;48.876;2.136;2022-12-11T07:24:23;12.23;;;6.13;;
61085;SDS011;46967;48.876;2.136;2022-12-11T07:26:49;19.63;;;9.68;;
61085;SDS011;46967;48.876;2.136;2022-12-11T07:29:14;16.50;;;8.15;;
61085;SDS011;46967;48.876;2.136;2022-12-11T07:31:39;21.85;;;10.35;;
61085;SDS011;46967;48.876;2.136;2022-12-11T07:34:05;15.38;;;7.90;;
61085;SDS011;46967;48.876;2.136;2022-12-11T07:36:32;13.10;;;6.93;;
61085;SDS011;46967;48.876;2.136;2022-12-11T07:38:58;15.45;;;7.43;;
61085;SDS011;46967;48.876;2.136;2022-12-11T07:41:24;13.90;;;7.43;;
61085;SDS011;46967;48.876;2.136;2022-12-11T07:43:52;14.43;;;7.72;;
61085;SDS011;46967;48.876;2.136;2022-12-11T07:46:20;14.70;;;8.05;;
61085;SDS011;46967;48.876;2.136;2022-12-11T07:48:47;19.25;;;8.77;;
61085;SDS011;46967;48.876;2.136;2022-12-11T07:53:51;17.27;;;8.30;;
61085;SDS011;46967;48.876;2.136;2022-12-11T07:56:20;15.82;;;9.10;;
61085;SDS011;46967;48.876;2.136;2022-12-11T07:58:46;20.08;;;9.25;;
61085;SDS011;46967;48.876;2.136;2022-12-11T08:01:13;17.45;;;8.88;;
61085;SDS011;46967;48.876;2.136;2022-12-11T08:03:41;18.52;;;9.60;;
61085;SDS011;46967;48.876;2.136;2022-12-11T08:06:06;21.10;;;9.75;;
61085;SDS011;46967;48.876;2.136;2022-12-11T08:08:32;19.65;;;9.32;;
61085;SDS011;46967;48.876;2.136;2022-12-11T08:11:01;17.30;;;9.32;;
61085;SDS011;46967;48.876;2.136;2022-12-11T08:13:30;20.80;;;10.95;;
61085;SDS011;46967;48.876;2.136;2022-12-11T08:15:57;20.05;;;10.27;;
61085;SDS011;46967;48.876;2.136;2022-12-11T08:18:22;22.60;;;11.45;;
61085;SDS011;46967;48.876;2.136;2022-12-11T08:20:48;18.13;;;10.52;;
61085;SDS011;46967;48.876;2.136;2022-12-11T08:23:13;21.20;;;11.30;;
61085;SDS011;46967;48.876;2.136;2022-12-11T08:25:38;20.25;;;11.05;;
61085;SDS011;46967;48.876;2.136;2022-12-11T08:28:04;23.55;;;12.00;;
61085;SDS011;46967;48.876;2.136;2022-12-11T08:30:29;19.95;;;11.88;;
61085;SDS011;46967;48.876;2.136;2022-12-11T08:32:55;21.50;;;11.55;;
61085;SDS011;46967;48.876;2.136;2022-12-11T08:35:21;23.98;;;11.75;;
61085;SDS011;46967;48.876;2.136;2022-12-11T08:37:47;26.55;;;12.95;;
61085;SDS011;46967;48.876;2.136;2022-12-11T08:40:12;25.70;;;13.10;;
61085;SDS011;46967;48.876;2.136;2022-12-11T08:42:38;35.58;;;16.15;;
61085;SDS011;46967;48.876;2.136;2022-12-11T08:45:03;38.17;;;18.70;;
61085;SDS011;46967;48.876;2.136;2022-12-11T08:47:29;40.03;;;19.80;;
61085;SDS011;46967;48.876;2.136;2022-12-11T08:49:55;24.05;;;13.40;;
61085;SDS011;46967;48.876;2.136;2022-12-11T08:52:21;54.10;;;34.65;;
61085;SDS011;46967;48.876;2.136;2022-12-11T08:54:53;22.50;;;12.70;;
61085;SDS011;46967;48.876;2.136;2022-12-11T08:57:18;26.10;;;14.43;;
61085;SDS011;46967;48.876;2.136;2022-12-11T08:59:43;35.42;;;18.20;;
61085;SDS011;46967;48.876;2.136;2022-12-11T09:02:10;27.65;;;14.13;;
61085;SDS011;46967;48.876;2.136;2022-12-11T09:04:36;28.50;;;15.60;;
61085;SDS011;46967;48.876;2.136;2022-12-11T09:07:01;25.15;;;14.13;;
61085;SDS011;46967;48.876;2.136;2022-12-11T09:09:27;24.20;;;13.30;;
61085;SDS011;46967;48.876;2.136;2022-12-11T09:11:52;21.80;;;13.30;;
61085;SDS011;46967;48.876;2.136;2022-12-11T09:14:18;31.55;;;17.27;;
61085;SDS011;46967;48.876;2.136;2022-12-11T09:16:43;29.80;;;14.60;;
61085;SDS011;46967;48.876;2.136;2022-12-11T09:19:10;22.10;;;11.80;;
61085;SDS011;46967;48.876;2.136;2022-12-11T09:21:38;24.90;;;12.90;;
61085;SDS011;46967;48.876;2.136;2022-12-11T09:24:10;20.95;;;11.77;;
61085;SDS011;46967;48.876;2.136;2022-12-11T09:26:42;24.40;;;12.93;;
61085;SDS011;46967;48.876;2.136;2022-12-11T09:29:07;25.30;;;12.50;;
61085;SDS011;46967;48.876;2.136;2022-12-11T09:31:35;28.70;;;12.65;;
61085;SDS011;46967;48.876;2.136;2022-12-11T09:34:03;25.63;;;13.48;;
61085;SDS011;46967;48.876;2.136;2022-12-11T09:36:30;17.23;;;9.15;;
61085;SDS011;46967;48.876;2.136;2022-12-11T09:38:59;24.85;;;13.23;;
61085;SDS011;46967;48.876;2.136;2022-12-11T09:41:39;17.77;;;9.13;;
61085;SDS011;46967;48.876;2.136;2022-12-11T09:47:08;15.73;;;8.38;;
61085;SDS011;46967;48.876;2.136;2022-12-11T09:49:44;18.10;;;10.02;;
61085;SDS011;46967;48.876;2.136;2022-12-11T09:52:17;19.15;;;9.68;;
61085;SDS011;46967;48.876;2.136;2022-12-11T09:54:50;16.55;;;9.50;;
61085;SDS011;46967;48.876;2.136;2022-12-11T09:57:37;16.25;;;8.52;;
61085;SDS011;46967;48.876;2.136;2022-12-11T10:05:33;17.25;;;9.10;;
61085;SDS011;46967;48.876;2.136;2022-12-11T10:08:12;17.77;;;9.18;;
61085;SDS011;46967;48.876;2.136;2022-12-11T10:10:50;19.70;;;9.57;;
61085;SDS011;46967;48.876;2.136;2022-12-11T10:16:29;18.70;;;9.80;;
61085;SDS011;46967;48.876;2.136;2022-12-11T10:19:03;20.02;;;10.60;;
61085;SDS011;46967;48.876;2.136;2022-12-11T10:21:31;18.58;;;10.65;;
61085;SDS011;46967;48.876;2.136;2022-12-11T10:24:10;19.42;;;9.93;;
61085;SDS011;46967;48.876;2.136;2022-12-11T10:26:42;18.63;;;8.75;;
61085;SDS011;46967;48.876;2.136;2022-12-11T10:29:11;17.60;;;9.20;;
61085;SDS011;46967;48.876;2.136;2022-12-11T10:31:45;12.45;;;6.95;;
61085;SDS011;46967;48.876;2.136;2022-12-11T10:34:23;14.95;;;7.63;;
61085;SDS011;46967;48.876;2.136;2022-12-11T10:36:51;18.50;;;9.75;;
61085;SDS011;46967;48.876;2.136;2022-12-11T10:39:18;14.35;;;8.43;;
61085;SDS011;46967;48.876;2.136;2022-12-11T10:41:46;18.73;;;10.52;;
61085;SDS011;46967;48.876;2.136;2022-12-11T10:44:18;21.88;;;12.10;;
61085;SDS011;46967;48.876;2.136;2022-12-11T10:46:46;17.30;;;8.93;;
61085;SDS011;46967;48.876;2.136;2022-12-11T10:49:26;21.95;;;11.27;;
61085;SDS011;46967;48.876;2.136;2022-12-11T10:51:54;22.10;;;10.40;;
61085;SDS011;46967;48.876;2.136;2022-12-11T10:57:08;32.55;;;15.60;;
61085;SDS011;46967;48.876;2.136;2022-12-11T10:59:36;21.80;;;11.48;;
61085;SDS011;46967;48.876;2.136;2022-12-11T11:04:54;16.08;;;9.68;;
61085;SDS011;46967;48.876;2.136;2022-12-11T11:07:29;13.63;;;8.02;;
61085;SDS011;46967;48.876;2.136;2022-12-11T11:12:48;16.70;;;9.15;;
61085;SDS011;46967;48.876;2.136;2022-12-11T11:15:15;14.80;;;8.23;;
61085;SDS011;46967;48.876;2.136;2022-12-11T11:17:44;19.00;;;9.35;;
61085;SDS011;46967;48.876;2.136;2022-12-11T11:20:13;16.63;;;8.68;;
61085;SDS011;46967;48.876;2.136;2022-12-11T11:22:45;14.52;;;8.55;;
61085;SDS011;46967;48.876;2.136;2022-12-11T11:25:20;15.38;;;9.60;;
61085;SDS011;46967;48.876;2.136;2022-12-11T11:27:57;15.10;;;8.80;;
61085;SDS011;46967;48.876;2.136;2022-12-11T11:30:29;13.98;;;8.18;;
61085;SDS011;46967;48.876;2.136;2022-12-11T11:33:01;15.52;;;9.38;;
61085;SDS011;46967;48.876;2.136;2022-12-11T11:35:30;17.13;;;9.15;;
61085;SDS011;46967;48.876;2.136;2022-12-11T11:46:03;21.00;;;11.50;;
61085;SDS011;46967;48.876;2.136;2022-12-11T11:51:12;19.20;;;10.50;;
61085;SDS011;46967;48.876;2.136;2022-12-11T11:53:58;18.27;;;8.98;;
61085;SDS011;46967;48.876;2.136;2022-12-11T11:56:26;16.23;;;10.00;;
61085;SDS011;46967;48.876;2.136;2022-12-11T11:58:59;14.73;;;9.23;;
61085;SDS011;46967;48.876;2.136;2022-12-11T12:01:44;22.05;;;11.00;;
61085;SDS011;46967;48.876;2.136;2022-12-11T12:04:10;17.65;;;10.00;;
61085;SDS011;46967;48.876;2.136;2022-12-11T12:23:43;13.55;;;9.02;;
61085;SDS011;46967;48.876;2.136;2022-12-11T12:29:06;11.68;;;7.85;;
61085;SDS011;46967;48.876;2.136;2022-12-11T12:32:15;12.45;;;7.55;;
61085;SDS011;46967;48.876;2.136;2022-12-11T12:38:29;30.23;;;16.45;;
61085;SDS011;46967;48.876;2.136;2022-12-11T12:40:44;14.35;;;9.85;;
61085;SDS011;46967;48.876;2.136;2022-12-11T12:49:13;16.85;;;10.07;;
61085;SDS011;46967;48.876;2.136;2022-12-11T12:51:43;13.32;;;7.90;;
61085;SDS011;46967;48.876;2.136;2022-12-11T12:54:11;17.67;;;8.52;;
61085;SDS011;46967;48.876;2.136;2022-12-11T12:56:40;23.75;;;13.63;;
61085;SDS011;46967;48.876;2.136;2022-12-11T12:59:19;23.67;;;14.80;;
61085;SDS011;46967;48.876;2.136;2022-12-11T13:01:46;15.27;;;9.05;;
61085;SDS011;46967;48.876;2.136;2022-12-11T13:04:25;16.40;;;9.02;;
61085;SDS011;46967;48.876;2.136;2022-12-11T13:07:15;14.95;;;8.75;;
61085;SDS011;46967;48.876;2.136;2022-12-11T13:09:54;12.60;;;8.60;;
61085;SDS011;46967;48.876;2.136;2022-12-11T13:12:27;19.33;;;11.45;;
61085;SDS011;46967;48.876;2.136;2022-12-11T13:14:57;18.58;;;10.30;;
61085;SDS011;46967;48.876;2.136;2022-12-11T13:17:24;14.30;;;8.60;;
61085;SDS011;46967;48.876;2.136;2022-12-11T13:20:16;15.65;;;9.00;;
61085;SDS011;46967;48.876;2.136;2022-12-11T13:25:52;22.48;;;12.13;;
61085;SDS011;46967;48.876;2.136;2022-12-11T13:33:56;16.75;;;10.20;;
61085;SDS011;46967;48.876;2.136;2022-12-11T13:36:32;16.15;;;10.20;;
61085;SDS011;46967;48.876;2.136;2022-12-11T13:39:22;17.25;;;10.70;;
61085;SDS011;46967;48.876;2.136;2022-12-11T13:41:51;20.33;;;11.30;;
61085;SDS011;46967;48.876;2.136;2022-12-11T13:44:24;23.48;;;12.88;;
61085;SDS011;46967;48.876;2.136;2022-12-11T13:46:52;22.38;;;12.00;;
61085;SDS011;46967;48.876;2.136;2022-12-11T13:49:33;15.25;;;9.55;;
61085;SDS011;46967;48.876;2.136;2022-12-11T13:52:00;18.83;;;10.23;;
61085;SDS011;46967;48.876;2.136;2022-12-11T13:54:27;18.08;;;10.60;;
61085;SDS011;46967;48.876;2.136;2022-12-11T13:59:32;19.63;;;11.32;;
61085;SDS011;46967;48.876;2.136;2022-12-11T14:02:02;19.67;;;10.98;;
61085;SDS011;46967;48.876;2.136;2022-12-11T14:04:49;19.77;;;10.20;;
61085;SDS011;46967;48.876;2.136;2022-12-11T14:07:31;16.50;;;9.32;;
61085;SDS011;46967;48.876;2.136;2022-12-11T14:10:17;19.75;;;9.93;;
61085;SDS011;46967;48.876;2.136;2022-12-11T14:12:47;16.73;;;9.27;;
61085;SDS011;46967;48.876;2.136;2022-12-11T14:15:17;15.18;;;8.63;;
61085;SDS011;46967;48.876;2.136;2022-12-11T14:17:43;16.50;;;9.20;;
61085;SDS011;46967;48.876;2.136;2022-12-11T14:20:16;17.00;;;9.93;;
61085;SDS011;46967;48.876;2.136;2022-12-11T14:22:44;17.33;;;9.27;;
61085;SDS011;46967;48.876;2.136;2022-12-11T14:25:23;18.13;;;9.38;;
61085;SDS011;46967;48.876;2.136;2022-12-11T14:27:51;23.58;;;11.20;;
61085;SDS011;46967;48.876;2.136;2022-12-11T14:30:26;16.65;;;8.95;;
61085;SDS011;46967;48.876;2.136;2022-12-11T14:32:56;18.10;;;9.35;;
61085;SDS011;46967;48.876;2.136;2022-12-11T14:37:59;16.90;;;9.23;;
61085;SDS011;46967;48.876;2.136;2022-12-11T14:40:34;22.45;;;11.75;;
61085;SDS011;46967;48.876;2.136;2022-12-11T14:43:17;24.17;;;11.85;;
61085;SDS011;46967;48.876;2.136;2022-12-11T14:45:58;20.88;;;11.70;;
61085;SDS011;46967;48.876;2.136;2022-12-11T14:48:27;18.88;;;11.18;;
61085;SDS011;46967;48.876;2.136;2022-12-11T14:50:58;16.50;;;9.68;;
61085;SDS011;46967;48.876;2.136;2022-12-11T14:53:29;18.13;;;10.00;;
61085;SDS011;46967;48.876;2.136;2022-12-11T14:56:00;18.45;;;10.75;;
61085;SDS011;46967;48.876;2.136;2022-12-11T14:58:29;17.88;;;11.23;;
61085;SDS011;46967;48.876;2.136;2022-12-11T15:01:02;19.15;;;11.35;;
61085;SDS011;46967;48.876;2.136;2022-12-11T15:03:34;19.30;;;10.95;;
61085;SDS011;46967;48.876;2.136;2022-12-11T15:08:55;18.65;;;9.95;;
61085;SDS011;46967;48.876;2.136;2022-12-11T15:11:21;17.83;;;10.60;;
61085;SDS011;46967;48.876;2.136;2022-12-11T15:16:18;15.90;;;10.07;;
61085;SDS011;46967;48.876;2.136;2022-12-11T15:18:49;19.15;;;10.25;;
61085;SDS011;46967;48.876;2.136;2022-12-11T15:21:17;17.45;;;9.73;;
61085;SDS011;46967;48.876;2.136;2022-12-11T15:26:17;21.98;;;10.88;;
61085;SDS011;46967;48.876;2.136;2022-12-11T15:28:44;17.33;;;10.50;;
61085;SDS011;46967;48.876;2.136;2022-12-11T15:31:29;18.52;;;10.10;;
61085;SDS011;46967;48.876;2.136;2022-12-11T15:33:56;18.40;;;10.32;;
61085;SDS011;46967;48.876;2.136;2022-12-11T15:36:23;19.65;;;10.88;;
61085;SDS011;46967;48.876;2.136;2022-12-11T15:38:49;17.45;;;11.43;;
61085;SDS011;46967;48.876;2.136;2022-12-11T15:41:15;20.50;;;11.98;;
61085;SDS011;46967;48.876;2.136;2022-12-11T15:43:44;20.00;;;11.63;;
61085;SDS011;46967;48.876;2.136;2022-12-11T15:46:11;24.20;;;14.00;;
61085;SDS011;46967;48.876;2.136;2022-12-11T15:48:36;20.95;;;12.48;;
61085;SDS011;46967;48.876;2.136;2022-12-11T15:51:01;23.75;;;12.10;;
61085;SDS011;46967;48.876;2.136;2022-12-11T15:53:27;22.95;;;12.27;;
61085;SDS011;46967;48.876;2.136;2022-12-11T15:55:53;23.17;;;12.65;;
61085;SDS011;46967;48.876;2.136;2022-12-11T15:58:19;19.20;;;11.80;;
61085;SDS011;46967;48.876;2.136;2022-12-11T16:00:47;22.00;;;12.38;;
61085;SDS011;46967;48.876;2.136;2022-12-11T16:03:13;20.88;;;11.57;;
61085;SDS011;46967;48.876;2.136;2022-12-11T16:05:40;22.10;;;12.38;;
61085;SDS011;46967;48.876;2.136;2022-12-11T16:08:06;19.10;;;12.07;;
61085;SDS011;46967;48.876;2.136;2022-12-11T16:10:34;21.40;;;11.95;;
61085;SDS011;46967;48.876;2.136;2022-12-11T16:12:59;23.63;;;12.13;;
61085;SDS011;46967;48.876;2.136;2022-12-11T16:15:26;22.65;;;12.98;;
61085;SDS011;46967;48.876;2.136;2022-12-11T16:18:02;25.88;;;12.95;;
61085;SDS011;46967;48.876;2.136;2022-12-11T16:20:29;18.70;;;12.10;;
61085;SDS011;46967;48.876;2.136;2022-12-11T16:22:55;20.42;;;11.98;;
61085;SDS011;46967;48.876;2.136;2022-12-11T16:25:22;20.05;;;11.77;;
61085;SDS011;46967;48.876;2.136;2022-12-11T16:27:48;21.40;;;12.60;;
61085;SDS011;46967;48.876;2.136;2022-12-11T16:30:13;21.50;;;12.52;;
61085;SDS011;46967;48.876;2.136;2022-12-11T16:32:39;22.27;;;13.00;;